sensor_id;sensor_type;location;lat;lon;timestamp;pressure;altitude;pressure_sealevel;temperature;humidity
84936;BME280;75210;52.210;20.902;2024-02-21T00:00:06;100793.72;;;4.82;86.93
84936;BME280;75210;52.210;20.902;2024-02-21T00:01:07;100596.00;;;3.66;86.05
84936;BME280;75210;52.210;20.902;2024-02-21T00:02:07;100797.00;;;4.93;86.52
84936;BME280;75210;52.210;20.902;2024-02-21T00:03:08;100687.66;;;4.33;86.13
84936;BME280;75210;52.210;20.902;2024-02-21T00:04:08;100782.28;;;4.88;86.25
84936;BME280;75210;52.210;20.902;2024-02-21T00:05:08;100735.84;;;4.60;86.12
84936;BME280;75210;52.210;20.902;2024-02-21T00:06:09;100695.34;;;4.43;85.98
84936;BME280;75210;52.210;20.902;2024-02-21T00:07:09;100795.78;;;5.08;85.56
84936;BME280;75210;52.210;20.902;2024-02-21T00:08:10;100737.28;;;4.75;85.56
84936;BME280;75210;52.210;20.902;2024-02-21T00:09:10;100791.28;;;5.15;86.04
84936;BME280;75210;52.210;20.902;2024-02-21T00:10:11;100720.06;;;4.66;85.90
84936;BME280;75210;52.210;20.902;2024-02-21T00:11:11;100793.03;;;5.14;86.12
84936;BME280;75210;52.210;20.902;2024-02-21T00:12:12;100789.50;;;5.17;86.18
84936;BME280;75210;52.210;20.902;2024-02-21T00:13:12;100799.09;;;5.16;85.58
84936;BME280;75210;52.210;20.902;2024-02-21T00:14:12;100790.22;;;5.22;85.50
84936;BME280;75210;52.210;20.902;2024-02-21T00:15:15;100789.28;;;5.26;85.50
84936;BME280;75210;52.210;20.902;2024-02-21T00:16:16;100789.25;;;5.27;85.52
84936;BME280;75210;52.210;20.902;2024-02-21T00:17:16;100738.69;;;4.90;85.58
84936;BME280;75210;52.210;20.902;2024-02-21T00:18:17;100654.16;;;4.54;85.40
84936;BME280;75210;52.210;20.902;2024-02-21T00:19:44;100781.28;;;5.32;85.52
84936;BME280;75210;52.210;20.902;2024-02-21T00:20:44;100792.56;;;5.34;85.41
84936;BME280;75210;52.210;20.902;2024-02-21T00:21:45;100794.28;;;5.35;85.56
84936;BME280;75210;52.210;20.902;2024-02-21T00:22:45;100787.25;;;5.37;85.43
84936;BME280;75210;52.210;20.902;2024-02-21T00:23:46;100792.47;;;5.38;85.60
84936;BME280;75210;52.210;20.902;2024-02-21T00:24:46;100793.28;;;5.40;85.52
84936;BME280;75210;52.210;20.902;2024-02-21T00:25:47;100790.53;;;5.45;85.15
84936;BME280;75210;52.210;20.902;2024-02-21T00:26:47;100797.53;;;5.45;84.85
84936;BME280;75210;52.210;20.902;2024-02-21T00:27:47;100671.81;;;4.81;84.51
84936;BME280;75210;52.210;20.902;2024-02-21T00:28:48;100788.72;;;5.49;85.13
84936;BME280;75210;52.210;20.902;2024-02-21T00:29:48;100794.75;;;5.52;84.90
84936;BME280;75210;52.210;20.902;2024-02-21T00:30:51;100688.13;;;4.91;84.49
84936;BME280;75210;52.210;20.902;2024-02-21T00:31:52;100787.63;;;5.57;84.84
84936;BME280;75210;52.210;20.902;2024-02-21T00:32:52;100718.09;;;5.13;84.61
84936;BME280;75210;52.210;20.902;2024-02-21T00:33:53;100732.63;;;5.25;84.64
84936;BME280;75210;52.210;20.902;2024-02-21T00:34:53;100786.31;;;5.41;85.06
84936;BME280;75210;52.210;20.902;2024-02-21T00:35:53;100787.03;;;5.46;85.29
84936;BME280;75210;52.210;20.902;2024-02-21T00:36:54;100780.84;;;5.50;84.91
84936;BME280;75210;52.210;20.902;2024-02-21T00:37:54;100638.88;;;4.74;84.56
84936;BME280;75210;52.210;20.902;2024-02-21T00:38:55;100778.78;;;5.63;84.51
84936;BME280;75210;52.210;20.902;2024-02-21T00:39:55;100777.31;;;5.51;85.38
84936;BME280;75210;52.210;20.902;2024-02-21T00:40:56;100752.44;;;5.35;85.08
84936;BME280;75210;52.210;20.902;2024-02-21T00:41:56;100780.75;;;5.55;85.08
84936;BME280;75210;52.210;20.902;2024-02-21T00:42:56;100782.34;;;5.59;84.87
84936;BME280;75210;52.210;20.902;2024-02-21T00:43:57;100786.72;;;5.58;85.33
84936;BME280;75210;52.210;20.902;2024-02-21T00:44:58;100785.97;;;5.55;85.41
84936;BME280;75210;52.210;20.902;2024-02-21T00:45:59;100685.25;;;5.01;85.16
84936;BME280;75210;52.210;20.902;2024-02-21T00:47:00;100785.81;;;5.61;85.09
84936;BME280;75210;52.210;20.902;2024-02-21T00:48:00;100788.31;;;5.65;85.14
84936;BME280;75210;52.210;20.902;2024-02-21T00:49:01;100723.63;;;5.36;84.77
84936;BME280;75210;52.210;20.902;2024-02-21T00:50:01;100682.34;;;5.14;84.96
84936;BME280;75210;52.210;20.902;2024-02-21T00:51:02;100779.56;;;5.66;84.91
84936;BME280;75210;52.210;20.902;2024-02-21T00:52:03;100715.88;;;5.32;85.00
84936;BME280;75210;52.210;20.902;2024-02-21T00:53:03;100775.16;;;5.68;85.04
84936;BME280;75210;52.210;20.902;2024-02-21T00:54:04;100767.25;;;5.70;85.26
84936;BME280;75210;52.210;20.902;2024-02-21T00:55:05;100765.84;;;5.57;85.49
84936;BME280;75210;52.210;20.902;2024-02-21T00:56:06;100772.72;;;5.61;85.62
84936;BME280;75210;52.210;20.902;2024-02-21T00:57:06;100773.53;;;5.63;85.39
84936;BME280;75210;52.210;20.902;2024-02-21T00:58:07;100772.63;;;5.65;85.60
84936;BME280;75210;52.210;20.902;2024-02-21T00:59:07;100766.56;;;5.63;85.65
84936;BME280;75210;52.210;20.902;2024-02-21T01:00:08;100768.56;;;5.54;85.76
84936;BME280;75210;52.210;20.902;2024-02-21T01:01:11;100768.53;;;5.55;85.92
84936;BME280;75210;52.210;20.902;2024-02-21T01:02:11;100764.91;;;5.59;86.18
84936;BME280;75210;52.210;20.902;2024-02-21T01:03:11;100764.88;;;5.61;86.23
84936;BME280;75210;52.210;20.902;2024-02-21T01:04:12;100766.63;;;5.60;86.08
84936;BME280;75210;52.210;20.902;2024-02-21T01:05:12;100738.91;;;5.53;85.60
84936;BME280;75210;52.210;20.902;2024-02-21T01:06:13;100760.53;;;5.60;86.36
84936;BME280;75210;52.210;20.902;2024-02-21T01:07:13;100763.97;;;5.62;86.11
84936;BME280;75210;52.210;20.902;2024-02-21T01:08:14;100756.88;;;5.67;85.96
84936;BME280;75210;52.210;20.902;2024-02-21T01:09:14;100762.00;;;5.70;86.01
84936;BME280;75210;52.210;20.902;2024-02-21T01:10:15;100758.47;;;5.72;85.78
84936;BME280;75210;52.210;20.902;2024-02-21T01:11:16;100689.78;;;5.30;86.27
84936;BME280;75210;52.210;20.902;2024-02-21T01:12:16;100751.66;;;5.67;86.34
84936;BME280;75210;52.210;20.902;2024-02-21T01:13:17;100752.63;;;5.63;86.33
84936;BME280;75210;52.210;20.902;2024-02-21T01:14:17;100767.44;;;5.62;86.43
84936;BME280;75210;52.210;20.902;2024-02-21T01:15:18;100756.91;;;5.65;86.43
84936;BME280;75210;52.210;20.902;2024-02-21T01:16:19;100580.72;;;4.66;86.36
84936;BME280;75210;52.210;20.902;2024-02-21T01:17:20;100747.31;;;5.66;86.72
84936;BME280;75210;52.210;20.902;2024-02-21T01:18:20;100749.88;;;5.67;86.99
84936;BME280;75210;52.210;20.902;2024-02-21T01:19:21;100710.47;;;5.39;87.07
84936;BME280;75210;52.210;20.902;2024-02-21T01:20:21;100747.16;;;5.70;86.97
84936;BME280;75210;52.210;20.902;2024-02-21T01:21:22;100747.31;;;5.66;87.37
84936;BME280;75210;52.210;20.902;2024-02-21T01:22:22;100728.28;;;5.59;87.13
84936;BME280;75210;52.210;20.902;2024-02-21T01:23:23;100650.38;;;5.02;87.60
84936;BME280;75210;52.210;20.902;2024-02-21T01:24:23;100658.06;;;5.09;87.47
84936;BME280;75210;52.210;20.902;2024-02-21T01:25:23;100749.97;;;5.64;87.98
84936;BME280;75210;52.210;20.902;2024-02-21T01:26:24;100685.44;;;5.29;87.34
84936;BME280;75210;52.210;20.902;2024-02-21T01:27:24;100743.66;;;5.71;87.39
84936;BME280;75210;52.210;20.902;2024-02-21T01:28:25;100748.94;;;5.70;87.68
84936;BME280;75210;52.210;20.902;2024-02-21T01:29:25;100750.75;;;5.68;87.96
84936;BME280;75210;52.210;20.902;2024-02-21T01:30:26;100761.31;;;5.63;88.46
84936;BME280;75210;52.210;20.902;2024-02-21T01:31:28;100759.66;;;5.59;88.48
84936;BME280;75210;52.210;20.902;2024-02-21T01:32:28;100755.53;;;5.51;89.04
84936;BME280;75210;52.210;20.902;2024-02-21T01:33:29;100757.28;;;5.50;89.56
84936;BME280;75210;52.210;20.902;2024-02-21T01:34:29;100757.19;;;5.55;88.80
84936;BME280;75210;52.210;20.902;2024-02-21T01:35:29;100759.72;;;5.58;88.66
84936;BME280;75210;52.210;20.902;2024-02-21T01:36:30;100744.91;;;5.57;88.52
84936;BME280;75210;52.210;20.902;2024-02-21T01:37:30;100756.16;;;5.60;88.54
84936;BME280;75210;52.210;20.902;2024-02-21T01:38:31;100751.81;;;5.59;88.62
84936;BME280;75210;52.210;20.902;2024-02-21T01:39:31;100747.44;;;5.60;88.56
84936;BME280;75210;52.210;20.902;2024-02-21T01:40:32;100757.09;;;5.58;88.69
84936;BME280;75210;52.210;20.902;2024-02-21T01:41:32;100748.38;;;5.57;88.81
84936;BME280;75210;52.210;20.902;2024-02-21T01:42:33;100748.38;;;5.57;88.93
84936;BME280;75210;52.210;20.902;2024-02-21T01:43:33;100746.59;;;5.59;89.28
84936;BME280;75210;52.210;20.902;2024-02-21T01:44:33;100742.19;;;5.61;88.91
84936;BME280;75210;52.210;20.902;2024-02-21T01:45:34;100744.72;;;5.64;88.78
84936;BME280;75210;52.210;20.902;2024-02-21T01:46:36;100746.38;;;5.68;88.78
84936;BME280;75210;52.210;20.902;2024-02-21T01:47:37;100738.47;;;5.70;88.54
84936;BME280;75210;52.210;20.902;2024-02-21T01:48:37;100721.53;;;5.51;88.48
84936;BME280;75210;52.210;20.902;2024-02-21T01:49:38;100742.09;;;5.64;88.82
84936;BME280;75210;52.210;20.902;2024-02-21T01:50:39;100737.59;;;5.69;88.73
84936;BME280;75210;52.210;20.902;2024-02-21T01:51:40;100735.09;;;5.66;88.92
84936;BME280;75210;52.210;20.902;2024-02-21T01:52:40;100673.31;;;5.27;88.21
84936;BME280;75210;52.210;20.902;2024-02-21T01:53:43;100734.19;;;5.67;88.58
84936;BME280;75210;52.210;20.902;2024-02-21T01:54:44;100679.50;;;5.23;88.53
84936;BME280;75210;52.210;20.902;2024-02-21T01:55:45;100685.41;;;5.31;88.60
84936;BME280;75210;52.210;20.902;2024-02-21T01:56:46;100682.63;;;5.37;87.89
84936;BME280;75210;52.210;20.902;2024-02-21T01:57:47;100741.06;;;5.70;88.26
84936;BME280;75210;52.210;20.902;2024-02-21T01:58:48;100742.84;;;5.69;88.71
84936;BME280;75210;52.210;20.902;2024-02-21T01:59:49;100740.16;;;5.72;88.50
84936;BME280;75210;52.210;20.902;2024-02-21T02:00:50;100678.25;;;5.37;88.63
84936;BME280;75210;52.210;20.902;2024-02-21T02:01:53;100701.38;;;5.54;88.20
84936;BME280;75210;52.210;20.902;2024-02-21T02:02:56;100741.72;;;5.80;87.86
84936;BME280;75210;52.210;20.902;2024-02-21T02:03:57;100731.47;;;5.70;88.42
84936;BME280;75210;52.210;20.902;2024-02-21T02:04:59;100661.19;;;5.23;88.45
84936;BME280;75210;52.210;20.902;2024-02-21T02:06:01;100682.56;;;5.40;88.35
84936;BME280;75210;52.210;20.902;2024-02-21T02:07:04;100736.88;;;5.64;88.67
84936;BME280;75210;52.210;20.902;2024-02-21T02:08:06;100634.69;;;5.02;88.71
84936;BME280;75210;52.210;20.902;2024-02-21T02:09:07;100667.25;;;5.25;88.31
84936;BME280;75210;52.210;20.902;2024-02-21T02:10:08;100642.34;;;5.10;88.61
84936;BME280;75210;52.210;20.902;2024-02-21T02:11:09;100733.38;;;5.65;88.46
84936;BME280;75210;52.210;20.902;2024-02-21T02:12:09;100735.72;;;5.74;88.39
84936;BME280;75210;52.210;20.902;2024-02-21T02:13:10;100731.34;;;5.75;88.31
84936;BME280;75210;52.210;20.902;2024-02-21T02:14:11;100733.06;;;5.76;88.06
84936;BME280;75210;52.210;20.902;2024-02-21T02:15:11;100726.81;;;5.82;88.10
84936;BME280;75210;52.210;20.902;2024-02-21T02:16:11;100727.91;;;5.73;88.41
84936;BME280;75210;52.210;20.902;2024-02-21T02:17:14;100697.72;;;5.60;88.27
84936;BME280;75210;52.210;20.902;2024-02-21T02:18:15;100703.03;;;5.57;88.24
84936;BME280;75210;52.210;20.902;2024-02-21T02:19:16;100726.06;;;5.78;88.29
84936;BME280;75210;52.210;20.902;2024-02-21T02:20:16;100732.09;;;5.80;88.15
84936;BME280;75210;52.210;20.902;2024-02-21T02:21:23;100730.19;;;5.87;87.49
84936;BME280;75210;52.210;20.902;2024-02-21T02:22:28;100729.31;;;5.86;87.87
84936;BME280;75210;52.210;20.902;2024-02-21T02:23:31;100731.03;;;5.87;87.82
84936;BME280;75210;52.210;20.902;2024-02-21T02:24:31;100727.59;;;5.85;87.91
84936;BME280;75210;52.210;20.902;2024-02-21T02:25:32;100726.63;;;5.91;87.52
84936;BME280;75210;52.210;20.902;2024-02-21T02:26:32;100687.81;;;5.72;87.74
84936;BME280;75210;52.210;20.902;2024-02-21T02:27:33;100720.34;;;5.96;87.44
84936;BME280;75210;52.210;20.902;2024-02-21T02:28:41;100728.16;;;5.98;87.44
84936;BME280;75210;52.210;20.902;2024-02-21T02:29:41;100723.78;;;5.98;87.29
84936;BME280;75210;52.210;20.902;2024-02-21T02:30:42;100719.47;;;5.96;87.49
84936;BME280;75210;52.210;20.902;2024-02-21T02:31:42;100735.13;;;5.99;87.48
84936;BME280;75210;52.210;20.902;2024-02-21T02:32:44;100728.16;;;5.98;87.54
84936;BME280;75210;52.210;20.902;2024-02-21T02:33:45;100726.34;;;6.00;87.47
84936;BME280;75210;52.210;20.902;2024-02-21T02:34:45;100725.47;;;6.01;87.04
84936;BME280;75210;52.210;20.902;2024-02-21T02:35:46;100717.03;;;5.90;87.63
84936;BME280;75210;52.210;20.902;2024-02-21T02:36:46;100730.06;;;5.93;87.73
84936;BME280;75210;52.210;20.902;2024-02-21T02:37:50;100658.47;;;5.60;87.80
84936;BME280;75210;52.210;20.902;2024-02-21T02:38:54;100635.22;;;5.49;87.70
84936;BME280;75210;52.210;20.902;2024-02-21T02:39:54;100717.66;;;5.99;87.46
84936;BME280;75210;52.210;20.902;2024-02-21T02:40:55;100699.50;;;5.93;87.44
84936;BME280;75210;52.210;20.902;2024-02-21T02:41:55;100692.78;;;5.82;87.33
84936;BME280;75210;52.210;20.902;2024-02-21T02:42:55;100721.91;;;6.03;87.28
84936;BME280;75210;52.210;20.902;2024-02-21T02:43:56;100725.50;;;5.99;87.22
84936;BME280;75210;52.210;20.902;2024-02-21T02:44:56;100582.03;;;5.18;87.07
84936;BME280;75210;52.210;20.902;2024-02-21T02:45:57;100722.84;;;6.01;87.53
84936;BME280;75210;52.210;20.902;2024-02-21T02:46:57;100702.16;;;5.92;87.26
84936;BME280;75210;52.210;20.902;2024-02-21T02:47:58;100661.13;;;5.58;87.70
84936;BME280;75210;52.210;20.902;2024-02-21T02:48:58;100717.56;;;6.02;87.74
84936;BME280;75210;52.210;20.902;2024-02-21T02:49:59;100638.66;;;5.51;87.39
84936;BME280;75210;52.210;20.902;2024-02-21T02:50:59;100718.25;;;6.09;87.48
84936;BME280;75210;52.210;20.902;2024-02-21T02:52:00;100720.09;;;6.05;87.02
84936;BME280;75210;52.210;20.902;2024-02-21T02:53:00;100649.94;;;5.53;87.56
84936;BME280;75210;52.210;20.902;2024-02-21T02:54:03;100688.53;;;5.77;87.64
84936;BME280;75210;52.210;20.902;2024-02-21T02:55:04;100678.22;;;5.71;87.64
84936;BME280;75210;52.210;20.902;2024-02-21T02:56:05;100721.16;;;5.98;87.60
84936;BME280;75210;52.210;20.902;2024-02-21T02:57:05;100671.28;;;5.70;87.54
84936;BME280;75210;52.210;20.902;2024-02-21T02:58:06;100713.38;;;5.95;88.12
84936;BME280;75210;52.210;20.902;2024-02-21T02:59:06;100707.44;;;5.90;87.88
84936;BME280;75210;52.210;20.902;2024-02-21T03:00:08;100717.59;;;6.01;87.75
84936;BME280;75210;52.210;20.902;2024-02-21T03:01:08;100712.38;;;6.01;87.55
84936;BME280;75210;52.210;20.902;2024-02-21T03:02:09;100634.06;;;5.59;87.28
84936;BME280;75210;52.210;20.902;2024-02-21T03:03:09;100709.63;;;6.05;87.29
84936;BME280;75210;52.210;20.902;2024-02-21T03:04:10;100707.91;;;6.04;87.65
84936;BME280;75210;52.210;20.902;2024-02-21T03:05:15;100698.50;;;5.97;87.25
84936;BME280;75210;52.210;20.902;2024-02-21T03:06:15;100649.41;;;5.73;87.06
84936;BME280;75210;52.210;20.902;2024-02-21T03:07:16;100671.03;;;5.80;87.59
84936;BME280;75210;52.210;20.902;2024-02-21T03:08:16;100704.56;;;5.99;87.99
84936;BME280;75210;52.210;20.902;2024-02-21T03:09:18;100712.44;;;5.98;87.56
84936;BME280;75210;52.210;20.902;2024-02-21T03:10:19;100714.25;;;5.96;87.96
84936;BME280;75210;52.210;20.902;2024-02-21T03:11:19;100708.94;;;5.99;87.55
84936;BME280;75210;52.210;20.902;2024-02-21T03:12:20;100714.16;;;5.99;87.48
84936;BME280;75210;52.210;20.902;2024-02-21T03:13:20;100716.78;;;5.99;87.73
84936;BME280;75210;52.210;20.902;2024-02-21T03:14:21;100716.72;;;6.02;87.43
84936;BME280;75210;52.210;20.902;2024-02-21T03:15:21;100715.81;;;6.03;87.54
84936;BME280;75210;52.210;20.902;2024-02-21T03:16:21;100720.44;;;5.93;88.01
84936;BME280;75210;52.210;20.902;2024-02-21T03:17:22;100721.34;;;5.92;88.12
84936;BME280;75210;52.210;20.902;2024-02-21T03:18:22;100715.06;;;5.98;87.61
84936;BME280;75210;52.210;20.902;2024-02-21T03:19:23;100716.91;;;5.94;87.69
84936;BME280;75210;52.210;20.902;2024-02-21T03:20:23;100712.63;;;5.92;87.78
84936;BME280;75210;52.210;20.902;2024-02-21T03:21:24;100609.56;;;5.31;87.43
84936;BME280;75210;52.210;20.902;2024-02-21T03:22:24;100713.56;;;5.88;87.94
84936;BME280;75210;52.210;20.902;2024-02-21T03:23:24;100692.97;;;5.75;87.68
84936;BME280;75210;52.210;20.902;2024-02-21T03:24:27;100716.34;;;5.82;88.22
84936;BME280;75210;52.210;20.902;2024-02-21T03:25:27;100720.81;;;5.78;87.97
84936;BME280;75210;52.210;20.902;2024-02-21T03:26:27;100715.69;;;5.73;87.87
84936;BME280;75210;52.210;20.902;2024-02-21T03:27:28;100599.91;;;5.00;87.98
84936;BME280;75210;52.210;20.902;2024-02-21T03:28:28;100660.88;;;5.35;88.45
84936;BME280;75210;52.210;20.902;2024-02-21T03:29:29;100709.84;;;5.64;88.47
84936;BME280;75210;52.210;20.902;2024-02-21T03:30:29;100710.66;;;5.66;88.36
84936;BME280;75210;52.210;20.902;2024-02-21T03:31:29;100706.28;;;5.66;88.18
84936;BME280;75210;52.210;20.902;2024-02-21T03:32:30;100709.78;;;5.67;88.38
84936;BME280;75210;52.210;20.902;2024-02-21T03:33:30;100703.66;;;5.68;87.82
84936;BME280;75210;52.210;20.902;2024-02-21T03:34:31;100709.66;;;5.70;88.22
84936;BME280;75210;52.210;20.902;2024-02-21T03:35:31;100706.25;;;5.68;88.51
84936;BME280;75210;52.210;20.902;2024-02-21T03:36:32;100552.38;;;4.85;88.08
84936;BME280;75210;52.210;20.902;2024-02-21T03:37:32;100694.88;;;5.69;88.02
84936;BME280;75210;52.210;20.902;2024-02-21T03:38:32;100706.28;;;5.66;88.04
84936;BME280;75210;52.210;20.902;2024-02-21T03:39:35;100700.16;;;5.67;88.15
84936;BME280;75210;52.210;20.902;2024-02-21T03:40:35;100698.34;;;5.69;87.77
84936;BME280;75210;52.210;20.902;2024-02-21T03:41:35;100709.78;;;5.67;87.38
84936;BME280;75210;52.210;20.902;2024-02-21T03:42:36;100705.34;;;5.69;87.96
84936;BME280;75210;52.210;20.902;2024-02-21T03:43:37;100707.91;;;5.70;88.03
84936;BME280;75210;52.210;20.902;2024-02-21T03:44:38;100711.28;;;5.75;87.65
84936;BME280;75210;52.210;20.902;2024-02-21T03:45:38;100707.84;;;5.73;87.86
84936;BME280;75210;52.210;20.902;2024-02-21T03:46:38;100616.88;;;5.18;87.48
84936;BME280;75210;52.210;20.902;2024-02-21T03:47:39;100591.78;;;5.11;87.46
84936;BME280;75210;52.210;20.902;2024-02-21T03:48:39;100710.38;;;5.76;88.18
84936;BME280;75210;52.210;20.902;2024-02-21T03:49:40;100703.31;;;5.80;87.69
84936;BME280;75210;52.210;20.902;2024-02-21T03:50:40;100610.66;;;5.22;87.79
84936;BME280;75210;52.210;20.902;2024-02-21T03:51:41;100688.72;;;5.70;87.68
84936;BME280;75210;52.210;20.902;2024-02-21T03:52:41;100707.47;;;5.87;87.56
84936;BME280;75210;52.210;20.902;2024-02-21T03:53:41;100708.34;;;5.88;87.94
84936;BME280;75210;52.210;20.902;2024-02-21T03:54:43;100683.59;;;5.67;88.18
84936;BME280;75210;52.210;20.902;2024-02-21T03:55:44;100710.94;;;5.88;87.83
84936;BME280;75210;52.210;20.902;2024-02-21T03:56:44;100708.28;;;5.91;87.92
84936;BME280;75210;52.210;20.902;2024-02-21T03:57:45;100705.66;;;5.91;87.82
84936;BME280;75210;52.210;20.902;2024-02-21T03:58:45;100655.91;;;5.58;88.27
84936;BME280;75210;52.210;20.902;2024-02-21T03:59:46;100696.22;;;5.84;88.12
84936;BME280;75210;52.210;20.902;2024-02-21T04:00:47;100703.09;;;5.89;88.30
84936;BME280;75210;52.210;20.902;2024-02-21T04:01:51;100682.31;;;5.82;87.86
84936;BME280;75210;52.210;20.902;2024-02-21T04:02:51;100648.00;;;5.60;87.72
84936;BME280;75210;52.210;20.902;2024-02-21T04:03:52;100649.47;;;5.70;87.83
84936;BME280;75210;52.210;20.902;2024-02-21T04:04:52;100699.28;;;6.01;87.51
84936;BME280;75210;52.210;20.902;2024-02-21T04:05:53;100698.47;;;5.99;88.25
84936;BME280;75210;52.210;20.902;2024-02-21T04:06:53;100701.91;;;6.01;87.91
84936;BME280;75210;52.210;20.902;2024-02-21T04:07:53;100677.81;;;5.87;87.83
84936;BME280;75210;52.210;20.902;2024-02-21T04:08:54;100698.50;;;5.97;88.11
84936;BME280;75210;52.210;20.902;2024-02-21T04:09:56;100634.97;;;5.58;88.27
84936;BME280;75210;52.210;20.902;2024-02-21T04:10:56;100695.91;;;5.96;88.42
84936;BME280;75210;52.210;20.902;2024-02-21T04:11:57;100693.22;;;5.99;88.07
84936;BME280;75210;52.210;20.902;2024-02-21T04:12:57;100696.59;;;6.04;87.72
84936;BME280;75210;52.210;20.902;2024-02-21T04:13:58;100693.09;;;6.03;87.84
84936;BME280;75210;52.210;20.902;2024-02-21T04:14:58;100629.03;;;5.53;88.16
84936;BME280;75210;52.210;20.902;2024-02-21T04:15:58;100672.84;;;5.77;88.55
84936;BME280;75210;52.210;20.902;2024-02-21T04:16:59;100694.34;;;5.90;88.73
84936;BME280;75210;52.210;20.902;2024-02-21T04:17:59;100694.16;;;5.96;88.27
84936;BME280;75210;52.210;20.902;2024-02-21T04:19:00;100690.69;;;5.96;88.50
84936;BME280;75210;52.210;20.902;2024-02-21T04:20:02;100698.41;;;6.00;87.85
84936;BME280;75210;52.210;20.902;2024-02-21T04:21:03;100686.91;;;6.06;87.78
84936;BME280;75210;52.210;20.902;2024-02-21T04:22:04;100685.22;;;6.05;87.87
84936;BME280;75210;52.210;20.902;2024-02-21T04:23:04;100685.09;;;6.08;87.93
84936;BME280;75210;52.210;20.902;2024-02-21T04:24:05;100689.34;;;6.12;87.49
84936;BME280;75210;52.210;20.902;2024-02-21T04:25:08;100688.38;;;6.16;87.27
84936;BME280;75210;52.210;20.902;2024-02-21T04:26:09;100664.16;;;6.08;87.50
84936;BME280;75210;52.210;20.902;2024-02-21T04:27:09;100678.72;;;6.18;87.10
84936;BME280;75210;52.210;20.902;2024-02-21T04:28:10;100679.63;;;6.17;87.22
84936;BME280;75210;52.210;20.902;2024-02-21T04:29:11;100674.53;;;6.11;87.25
84936;BME280;75210;52.210;20.902;2024-02-21T04:30:12;100630.69;;;5.87;87.42
84936;BME280;75210;52.210;20.902;2024-02-21T04:31:12;100689.91;;;6.23;87.15
84936;BME280;75210;52.210;20.902;2024-02-21T04:32:13;100684.78;;;6.19;87.03
84936;BME280;75210;52.210;20.902;2024-02-21T04:33:13;100682.13;;;6.20;87.21
84936;BME280;75210;52.210;20.902;2024-02-21T04:34:13;100683.13;;;6.16;87.40
84936;BME280;75210;52.210;20.902;2024-02-21T04:35:14;100683.22;;;6.13;87.41
84936;BME280;75210;52.210;20.902;2024-02-21T04:36:14;100677.91;;;6.16;87.43
84936;BME280;75210;52.210;20.902;2024-02-21T04:37:15;100671.84;;;6.14;87.19
84936;BME280;75210;52.210;20.902;2024-02-21T04:38:15;100677.00;;;6.17;87.00
84936;BME280;75210;52.210;20.902;2024-02-21T04:39:16;100661.72;;;6.02;87.49
84936;BME280;75210;52.210;20.902;2024-02-21T04:40:18;100572.28;;;5.55;87.19
84936;BME280;75210;52.210;20.902;2024-02-21T04:41:18;100670.00;;;6.18;87.55
84936;BME280;75210;52.210;20.902;2024-02-21T04:42:18;100588.63;;;5.63;87.43
84936;BME280;75210;52.210;20.902;2024-02-21T04:43:19;100677.78;;;6.19;87.48
84936;BME280;75210;52.210;20.902;2024-02-21T04:44:19;100675.09;;;6.22;87.08
84936;BME280;75210;52.210;20.902;2024-02-21T04:45:20;100677.63;;;6.25;87.02
84936;BME280;75210;52.210;20.902;2024-02-21T04:46:20;100675.00;;;6.25;87.14
84936;BME280;75210;52.210;20.902;2024-02-21T04:47:20;100686.44;;;6.23;87.19
84936;BME280;75210;52.210;20.902;2024-02-21T04:48:21;100677.63;;;6.25;87.36
84936;BME280;75210;52.210;20.902;2024-02-21T04:49:22;100681.97;;;6.26;87.35
84936;BME280;75210;52.210;20.902;2024-02-21T04:50:22;100668.13;;;6.21;87.26
84936;BME280;75210;52.210;20.902;2024-02-21T04:51:23;100675.16;;;6.19;87.61
84936;BME280;75210;52.210;20.902;2024-02-21T04:52:24;100606.22;;;5.89;87.34
84936;BME280;75210;52.210;20.902;2024-02-21T04:53:24;100649.41;;;6.05;87.17
84936;BME280;75210;52.210;20.902;2024-02-21T04:54:24;100678.75;;;6.17;87.96
84936;BME280;75210;52.210;20.902;2024-02-21T04:55:26;100658.28;;;6.00;88.12
84936;BME280;75210;52.210;20.902;2024-02-21T04:56:27;100676.88;;;6.20;87.40
84936;BME280;75210;52.210;20.902;2024-02-21T04:57:27;100675.94;;;6.23;87.74
84936;BME280;75210;52.210;20.902;2024-02-21T04:58:28;100670.03;;;6.16;87.53
84936;BME280;75210;52.210;20.902;2024-02-21T04:59:28;100633.22;;;5.91;87.28
84936;BME280;75210;52.210;20.902;2024-02-21T05:00:28;100677.59;;;6.27;87.21
84936;BME280;75210;52.210;20.902;2024-02-21T05:01:29;100625.44;;;5.88;87.44
84936;BME280;75210;52.210;20.902;2024-02-21T05:02:29;100680.31;;;6.22;87.46
84936;BME280;75210;52.210;20.902;2024-02-21T05:03:30;100681.88;;;6.29;87.59
84936;BME280;75210;52.210;20.902;2024-02-21T05:04:30;100673.91;;;6.32;87.07
84936;BME280;75210;52.210;20.902;2024-02-21T05:05:31;100650.03;;;6.13;87.39
84936;BME280;75210;52.210;20.902;2024-02-21T05:06:31;100562.25;;;5.69;86.92
84936;BME280;75210;52.210;20.902;2024-02-21T05:07:31;100668.00;;;6.26;87.60
84936;BME280;75210;52.210;20.902;2024-02-21T05:08:32;100665.19;;;6.32;87.19
84936;BME280;75210;52.210;20.902;2024-02-21T05:09:32;100667.81;;;6.32;87.35
84936;BME280;75210;52.210;20.902;2024-02-21T05:10:34;100674.81;;;6.31;87.20
84936;BME280;75210;52.210;20.902;2024-02-21T05:11:35;100665.31;;;6.29;87.61
84936;BME280;75210;52.210;20.902;2024-02-21T05:12:35;100522.34;;;5.32;87.37
84936;BME280;75210;52.210;20.902;2024-02-21T05:13:36;100665.47;;;6.23;87.87
84936;BME280;75210;52.210;20.902;2024-02-21T05:14:36;100670.75;;;6.21;87.96
84936;BME280;75210;52.210;20.902;2024-02-21T05:15:37;100664.53;;;6.25;87.57
84936;BME280;75210;52.210;20.902;2024-02-21T05:16:38;100659.78;;;6.08;88.00
84936;BME280;75210;52.210;20.902;2024-02-21T05:17:39;100665.94;;;6.06;88.62